sensor_id;sensor_type;location;lat;lon;timestamp;pressure;altitude;pressure_sealevel;temperature;humidity
829;BME280;396;52.558;13.188;2023-12-20T00:02:09;100417.06;;;7.28;100.00
829;BME280;396;52.558;13.188;2023-12-20T00:04:35;100421.34;;;7.29;100.00
829;BME280;396;52.558;13.188;2023-12-20T00:07:02;100420.31;;;7.25;100.00
829;BME280;396;52.558;13.188;2023-12-20T00:09:29;100418.66;;;7.29;100.00
829;BME280;396;52.558;13.188;2023-12-20T00:11:55;100420.31;;;7.25;100.00
829;BME280;396;52.558;13.188;2023-12-20T00:14:22;100401.69;;;7.29;100.00
829;BME280;396;52.558;13.188;2023-12-20T00:16:50;100399.56;;;7.26;100.00
829;BME280;396;52.558;13.188;2023-12-20T00:19:17;100397.69;;;7.26;100.00
829;BME280;396;52.558;13.188;2023-12-20T00:21:43;100394.16;;;7.26;100.00
829;BME280;396;52.558;13.188;2023-12-20T00:24:10;100395.25;;;7.25;100.00
829;BME280;396;52.558;13.188;2023-12-20T00:26:36;100396.34;;;7.24;100.00
829;BME280;396;52.558;13.188;2023-12-20T00:29:03;100393.66;;;7.24;100.00
829;BME280;396;52.558;13.188;2023-12-20T00:31:30;100387.47;;;7.23;100.00
829;BME280;396;52.558;13.188;2023-12-20T00:33:58;100395.56;;;7.23;100.00
829;BME280;396;52.558;13.188;2023-12-20T00:36:24;100391.47;;;7.26;100.00
829;BME280;396;52.558;13.188;2023-12-20T00:38:51;100386.63;;;7.28;100.00
829;BME280;396;52.558;13.188;2023-12-20T00:41:18;100394.94;;;7.31;100.00
829;BME280;396;52.558;13.188;2023-12-20T00:43:44;100389.03;;;7.29;100.00
829;BME280;396;52.558;13.188;2023-12-20T00:46:11;100387.41;;;7.28;100.00
829;BME280;396;52.558;13.188;2023-12-20T00:48:38;100389.63;;;7.26;100.00
829;BME280;396;52.558;13.188;2023-12-20T00:51:08;100405.78;;;7.26;100.00
829;BME280;396;52.558;13.188;2023-12-20T00:53:35;100400.66;;;7.25;100.00
829;BME280;396;52.558;13.188;2023-12-20T00:56:02;100382.38;;;7.22;100.00
829;BME280;396;52.558;13.188;2023-12-20T00:58:28;100388.28;;;7.24;100.00
829;BME280;396;52.558;13.188;2023-12-20T01:00:55;100390.16;;;7.23;100.00
829;BME280;396;52.558;13.188;2023-12-20T01:03:23;100396.03;;;7.30;100.00
829;BME280;396;52.558;13.188;2023-12-20T01:05:50;100393.38;;;7.25;100.00
829;BME280;396;52.558;13.188;2023-12-20T01:08:17;100392.31;;;7.21;100.00
829;BME280;396;52.558;13.188;2023-12-20T01:10:44;100393.38;;;7.25;100.00
829;BME280;396;52.558;13.188;2023-12-20T01:13:12;100402.78;;;7.28;100.00
829;BME280;396;52.558;13.188;2023-12-20T01:15:38;100407.38;;;7.27;100.00
829;BME280;396;52.558;13.188;2023-12-20T01:18:05;100402.00;;;7.27;100.00
829;BME280;396;52.558;13.188;2023-12-20T01:20:31;100399.53;;;7.31;100.00
829;BME280;396;52.558;13.188;2023-12-20T01:22:58;100402.22;;;7.31;100.00
829;BME280;396;52.558;13.188;2023-12-20T01:25:26;100405.72;;;7.31;100.00
829;BME280;396;52.558;13.188;2023-12-20T01:27:53;100406.81;;;7.30;100.00
829;BME280;396;52.558;13.188;2023-12-20T01:30:19;100411.13;;;7.31;100.00
829;BME280;396;52.558;13.188;2023-12-20T01:32:46;100412.00;;;7.22;100.00
829;BME280;396;52.558;13.188;2023-12-20T01:35:12;100399.84;;;7.24;100.00
829;BME280;396;52.558;13.188;2023-12-20T01:37:39;100407.94;;;7.24;100.00
829;BME280;396;52.558;13.188;2023-12-20T01:40:07;100411.97;;;7.27;100.00
829;BME280;396;52.558;13.188;2023-12-20T01:42:35;100409.22;;;7.32;100.00
829;BME280;396;52.558;13.188;2023-12-20T01:45:03;100397.41;;;7.28;100.00
829;BME280;396;52.558;13.188;2023-12-20T01:47:30;100395.50;;;7.28;100.00
829;BME280;396;52.558;13.188;2023-12-20T01:49:56;100379.38;;;7.23;100.00
829;BME280;396;52.558;13.188;2023-12-20T01:52:24;100387.19;;;7.25;100.00
829;BME280;396;52.558;13.188;2023-12-20T01:54:52;100402.78;;;7.28;100.00
829;BME280;396;52.558;13.188;2023-12-20T01:57:20;100407.94;;;7.24;100.00
829;BME280;396;52.558;13.188;2023-12-20T01:59:47;100393.16;;;7.22;100.00
829;BME280;396;52.558;13.188;2023-12-20T02:02:14;100386.94;;;7.21;100.00
829;BME280;396;52.558;13.188;2023-12-20T02:04:40;100385.09;;;7.17;100.00
829;BME280;396;52.558;13.188;2023-12-20T02:07:07;100379.72;;;7.17;100.00
829;BME280;396;52.558;13.188;2023-12-20T02:09:35;100375.16;;;7.17;100.00
829;BME280;396;52.558;13.188;2023-12-20T02:12:03;100375.16;;;7.17;100.00
829;BME280;396;52.558;13.188;2023-12-20T02:14:30;100381.34;;;7.18;100.00
829;BME280;396;52.558;13.188;2023-12-20T02:16:58;100374.56;;;7.20;100.00
829;BME280;396;52.558;13.188;2023-12-20T02:19:24;100380.25;;;7.19;100.00
829;BME280;396;52.558;13.188;2023-12-20T02:22:05;100375.66;;;7.19;100.00
829;BME280;396;52.558;13.188;2023-12-20T02:24:31;100379.38;;;7.23;100.00
829;BME280;396;52.558;13.188;2023-12-20T02:26:58;100377.22;;;7.25;100.00
829;BME280;396;52.558;13.188;2023-12-20T02:29:25;100380.69;;;7.26;100.00
829;BME280;396;52.558;13.188;2023-12-20T02:31:52;100383.97;;;7.23;100.00
829;BME280;396;52.558;13.188;2023-12-20T02:34:18;100386.66;;;7.23;100.00
829;BME280;396;52.558;13.188;2023-12-20T02:36:45;100379.38;;;7.23;100.00
829;BME280;396;52.558;13.188;2023-12-20T02:39:13;100383.69;;;7.24;100.00
829;BME280;396;52.558;13.188;2023-12-20T02:41:40;100379.38;;;7.23;100.00
829;BME280;396;52.558;13.188;2023-12-20T02:44:06;100374.00;;;7.23;100.00
829;BME280;396;52.558;13.188;2023-12-20T02:46:33;100380.19;;;7.24;100.00
829;BME280;396;52.558;13.188;2023-12-20T02:49:00;100378.84;;;7.21;100.00
829;BME280;396;52.558;13.188;2023-12-20T02:51:26;100376.69;;;7.23;100.00
829;BME280;396;52.558;13.188;2023-12-20T02:53:53;100382.38;;;7.22;100.00
829;BME280;396;52.558;13.188;2023-12-20T02:56:21;100375.91;;;7.23;100.00
829;BME280;396;52.558;13.188;2023-12-20T02:58:47;100374.56;;;7.20;100.00
829;BME280;396;52.558;13.188;2023-12-20T03:01:14;100378.31;;;7.24;100.00
829;BME280;396;52.558;13.188;2023-12-20T03:03:41;100381.28;;;7.23;100.00
829;BME280;396;52.558;13.188;2023-12-20T03:06:07;100389.94;;;7.20;100.00
829;BME280;396;52.558;13.188;2023-12-20T03:08:34;100387.00;;;7.16;100.00
829;BME280;396;52.558;13.188;2023-12-20T03:11:01;100388.63;;;7.12;100.00
829;BME280;396;52.558;13.188;2023-12-20T03:13:29;100387.03;;;7.11;100.00
829;BME280;396;52.558;13.188;2023-12-20T03:15:55;100387.03;;;7.11;100.00
829;BME280;396;52.558;13.188;2023-12-20T03:18:22;100384.88;;;7.13;100.00
829;BME280;396;52.558;13.188;2023-12-20T03:20:48;100394.03;;;7.12;100.00
829;BME280;396;52.558;13.188;2023-12-20T03:23:16;100392.97;;;7.13;100.00
829;BME280;396;52.558;13.188;2023-12-20T03:25:42;100392.41;;;7.11;100.00
829;BME280;396;52.558;13.188;2023-12-20T03:28:09;100401.03;;;7.13;100.00
829;BME280;396;52.558;13.188;2023-12-20T03:30:37;100395.88;;;7.17;100.00
829;BME280;396;52.558;13.188;2023-12-20T03:33:04;100389.22;;;7.09;100.00
829;BME280;396;52.558;13.188;2023-12-20T03:35:30;100394.91;;;7.02;100.00
829;BME280;396;52.558;13.188;2023-12-20T03:37:57;100391.97;;;7.04;100.00
829;BME280;396;52.558;13.188;2023-12-20T03:40:25;100388.25;;;6.95;100.00
829;BME280;396;52.558;13.188;2023-12-20T03:42:51;100385.03;;;6.93;100.00
829;BME280;396;52.558;13.188;2023-12-20T03:45:18;100376.91;;;6.98;100.00
829;BME280;396;52.558;13.188;2023-12-20T03:47:46;100376.66;;;6.94;100.00
829;BME280;396;52.558;13.188;2023-12-20T03:50:13;100385.28;;;6.96;100.00
829;BME280;396;52.558;13.188;2023-12-20T03:52:39;100388.25;;;6.95;100.00
829;BME280;396;52.558;13.188;2023-12-20T03:55:06;100385.28;;;6.96;100.00
829;BME280;396;52.558;13.188;2023-12-20T03:57:33;100382.63;;;6.91;100.00
829;BME280;396;52.558;13.188;2023-12-20T03:59:59;100373.22;;;6.89;100.00
829;BME280;396;52.558;13.188;2023-12-20T04:02:26;100374.03;;;6.89;100.00
829;BME280;396;52.558;13.188;2023-12-20T04:04:54;100368.97;;;6.82;100.00
829;BME280;396;52.558;13.188;2023-12-20T04:07:21;100361.16;;;6.81;100.00
829;BME280;396;52.558;13.188;2023-12-20T04:09:47;100369.28;;;6.76;100.00
829;BME280;396;52.558;13.188;2023-12-20T04:12:14;100364.75;;;6.71;100.00
829;BME280;396;52.558;13.188;2023-12-20T04:14:40;100359.66;;;6.70;100.00
829;BME280;396;52.558;13.188;2023-12-20T04:17:07;100361.25;;;6.71;100.00
829;BME280;396;52.558;13.188;2023-12-20T04:19:34;100359.41;;;6.66;100.00
829;BME280;396;52.558;13.188;2023-12-20T04:22:02;100358.34;;;6.62;100.00
829;BME280;396;52.558;13.188;2023-12-20T04:24:28;100346.25;;;6.60;100.00
829;BME280;396;52.558;13.188;2023-12-20T04:26:55;100353.28;;;6.55;100.00
829;BME280;396;52.558;13.188;2023-12-20T04:29:22;100355.72;;;6.52;100.00
829;BME280;396;52.558;13.188;2023-12-20T04:31:48;100358.44;;;6.52;100.00
829;BME280;396;52.558;13.188;2023-12-20T04:34:16;100354.34;;;6.54;100.00
829;BME280;396;52.558;13.188;2023-12-20T04:36:43;100359.22;;;6.52;100.00
829;BME280;396;52.558;13.188;2023-12-20T04:39:11;100354.94;;;6.51;100.00
829;BME280;396;52.558;13.188;2023-12-20T04:41:38;100350.41;;;6.47;100.00
829;BME280;396;52.558;13.188;2023-12-20T04:44:05;100356.31;;;6.44;100.00
829;BME280;396;52.558;13.188;2023-12-20T04:46:32;100351.75;;;6.44;100.00
829;BME280;396;52.558;13.188;2023-12-20T04:48:59;100353.13;;;6.37;100.00
829;BME280;396;52.558;13.188;2023-12-20T04:51:25;100349.88;;;6.40;100.00
829;BME280;396;52.558;13.188;2023-12-20T04:53:52;100350.47;;;6.31;100.00
829;BME280;396;52.558;13.188;2023-12-20T04:56:20;100347.28;;;6.29;100.00
829;BME280;396;52.558;13.188;2023-12-20T04:58:47;100342.66;;;6.35;100.00
829;BME280;396;52.558;13.188;2023-12-20T05:01:14;100352.06;;;6.32;100.00
829;BME280;396;52.558;13.188;2023-12-20T05:03:40;100350.22;;;6.33;100.00
829;BME280;396;52.558;13.188;2023-12-20T05:06:07;100351.56;;;6.30;100.00
829;BME280;396;52.558;13.188;2023-12-20T05:08:33;100353.72;;;6.28;100.00
829;BME280;396;52.558;13.188;2023-12-20T05:11:00;100351.63;;;6.20;100.00
829;BME280;396;52.558;13.188;2023-12-20T05:13:28;100364.81;;;6.17;100.00
829;BME280;396;52.558;13.188;2023-12-20T05:15:55;100357.00;;;6.15;100.00
829;BME280;396;52.558;13.188;2023-12-20T05:18:21;100355.44;;;6.09;100.00
829;BME280;396;52.558;13.188;2023-12-20T05:20:48;100353.56;;;6.04;100.00
829;BME280;396;52.558;13.188;2023-12-20T05:23:15;100351.72;;;6.00;100.00
829;BME280;396;52.558;13.188;2023-12-20T05:25:42;100348.25;;;5.94;100.00
829;BME280;396;52.558;13.188;2023-12-20T05:28:09;100347.69;;;5.97;100.00
829;BME280;396;52.558;13.188;2023-12-20T05:30:37;100351.75;;;5.90;100.00
829;BME280;396;52.558;13.188;2023-12-20T05:33:04;100347.19;;;5.85;100.00
829;BME280;396;52.558;13.188;2023-12-20T05:35:30;100338.06;;;5.81;100.00
829;BME280;396;52.558;13.188;2023-12-20T05:37:57;100347.22;;;5.75;100.00
829;BME280;396;52.558;13.188;2023-12-20T05:40:23;100339.47;;;5.68;100.00
829;BME280;396;52.558;13.188;2023-12-20T05:42:50;100343.78;;;5.64;100.00
829;BME280;396;52.558;13.188;2023-12-20T05:45:17;100333.56;;;5.61;100.00
829;BME280;396;52.558;13.188;2023-12-20T05:47:45;100345.13;;;5.56;100.00
829;BME280;396;52.558;13.188;2023-12-20T05:50:11;100330.91;;;5.56;100.00
829;BME280;396;52.558;13.188;2023-12-20T05:52:38;100327.69;;;5.54;100.00
829;BME280;396;52.558;13.188;2023-12-20T05:55:05;100335.75;;;5.49;100.00
829;BME280;396;52.558;13.188;2023-12-20T05:57:32;100331.72;;;5.51;100.00
829;BME280;396;52.558;13.188;2023-12-20T05:59:58;100317.78;;;5.49;100.00
829;BME280;396;52.558;13.188;2023-12-20T06:02:25;100307.53;;;5.51;100.00
829;BME280;396;52.558;13.188;2023-12-20T06:04:53;100311.56;;;5.49;100.00
829;BME280;396;52.558;13.188;2023-12-20T06:07:19;100318.59;;;5.45;100.00
829;BME280;396;52.558;13.188;2023-12-20T06:09:46;100311.59;;;5.44;100.00
829;BME280;396;52.558;13.188;2023-12-20T06:12:13;100321.56;;;5.38;100.00
829;BME280;396;52.558;13.188;2023-12-20T06:14:39;100321.56;;;5.33;100.00
829;BME280;396;52.558;13.188;2023-12-20T06:17:06;100315.13;;;5.34;100.00
829;BME280;396;52.558;13.188;2023-12-20T06:19:32;100322.34;;;5.39;100.00
829;BME280;396;52.558;13.188;2023-12-20T06:22:00;100327.72;;;5.39;100.00
829;BME280;396;52.558;13.188;2023-12-20T06:24:27;100321.84;;;5.37;100.00
829;BME280;396;52.558;13.188;2023-12-20T06:26:54;100328.50;;;5.44;100.00
829;BME280;396;52.558;13.188;2023-12-20T06:29:21;100325.31;;;5.42;100.00
829;BME280;396;52.558;13.188;2023-12-20T06:31:47;100332.28;;;5.43;100.00
829;BME280;396;52.558;13.188;2023-12-20T06:34:14;100335.50;;;5.45;100.00
829;BME280;396;52.558;13.188;2023-12-20T06:36:40;100316.16;;;5.43;100.00
829;BME280;396;52.558;13.188;2023-12-20T06:39:08;100326.38;;;5.46;100.00
829;BME280;396;52.558;13.188;2023-12-20T06:41:37;100321.78;;;5.47;100.00
829;BME280;396;52.558;13.188;2023-12-20T06:44:04;100318.03;;;5.48;100.00
829;BME280;396;52.558;13.188;2023-12-20T06:46:31;100329.06;;;5.46;100.00
829;BME280;396;52.558;13.188;2023-12-20T06:48:58;100325.56;;;5.46;100.00
829;BME280;396;52.558;13.188;2023-12-20T06:51:24;100321.25;;;5.50;100.00
829;BME280;396;52.558;13.188;2023-12-20T06:53:51;100313.72;;;5.52;100.00
829;BME280;396;52.558;13.188;2023-12-20T06:56:19;100317.75;;;5.54;100.00
829;BME280;396;52.558;13.188;2023-12-20T06:58:46;100312.63;;;5.58;100.00
829;BME280;396;52.558;13.188;2023-12-20T07:01:13;100310.47;;;5.60;100.00
829;BME280;396;52.558;13.188;2023-12-20T07:03:40;100308.06;;;5.59;100.00
829;BME280;396;52.558;13.188;2023-12-20T07:06:07;100305.09;;;5.60;100.00
829;BME280;396;52.558;13.188;2023-12-20T07:08:34;100310.72;;;5.69;100.00
829;BME280;396;52.558;13.188;2023-12-20T07:11:00;100321.19;;;5.65;100.00
829;BME280;396;52.558;13.188;2023-12-20T07:13:29;100299.69;;;5.65;100.00
829;BME280;396;52.558;13.188;2023-12-20T07:15:56;100316.91;;;5.64;100.00
829;BME280;396;52.558;13.188;2023-12-20T07:18:23;100304.56;;;5.63;100.00
829;BME280;396;52.558;13.188;2023-12-20T07:20:49;100297.84;;;5.61;100.00
829;BME280;396;52.558;13.188;2023-12-20T07:23:16;100295.94;;;5.66;100.00
829;BME280;396;52.558;13.188;2023-12-20T07:25:44;100293.53;;;5.65;100.00
829;BME280;396;52.558;13.188;2023-12-20T07:28:11;100301.03;;;5.73;100.00
829;BME280;396;52.558;13.188;2023-12-20T07:30:39;100299.66;;;5.70;100.00
829;BME280;396;52.558;13.188;2023-12-20T07:33:06;100293.50;;;5.70;100.00
829;BME280;396;52.558;13.188;2023-12-20T07:35:34;100298.59;;;5.76;100.00
829;BME280;396;52.558;13.188;2023-12-20T07:38:00;100297.78;;;5.76;100.00
829;BME280;396;52.558;13.188;2023-12-20T07:40:27;100299.38;;;5.77;100.00
829;BME280;396;52.558;13.188;2023-12-20T07:42:54;100294.00;;;5.77;100.00
829;BME280;396;52.558;13.188;2023-12-20T07:45:20;100298.03;;;5.74;100.00
829;BME280;396;52.558;13.188;2023-12-20T07:47:48;100293.75;;;5.73;100.00
829;BME280;396;52.558;13.188;2023-12-20T07:50:15;100295.66;;;5.73;100.00
829;BME280;396;52.558;13.188;2023-12-20T07:52:42;100291.59;;;5.75;100.00
829;BME280;396;52.558;13.188;2023-12-20T07:55:09;100285.66;;;5.78;100.00
829;BME280;396;52.558;13.188;2023-12-20T07:57:35;100289.69;;;5.81;100.00
829;BME280;396;52.558;13.188;2023-12-20T08:00:02;100287.81;;;5.81;100.00
829;BME280;396;52.558;13.188;2023-12-20T08:02:29;100296.13;;;5.85;100.00
829;BME280;396;52.558;13.188;2023-12-20T08:04:57;100285.59;;;5.89;100.00
829;BME280;396;52.558;13.188;2023-12-20T08:07:24;100294.75;;;5.88;100.00
829;BME280;396;52.558;13.188;2023-12-20T08:09:50;100286.97;;;5.86;100.00
829;BME280;396;52.558;13.188;2023-12-20T08:12:18;100299.38;;;5.82;100.00
829;BME280;396;52.558;13.188;2023-12-20T08:14:44;100295.88;;;5.81;100.00
829;BME280;396;52.558;13.188;2023-12-20T08:17:11;100298.03;;;5.85;100.00
829;BME280;396;52.558;13.188;2023-12-20T08:19:38;100302.84;;;5.82;100.00
829;BME280;396;52.558;13.188;2023-12-20T08:22:06;100299.06;;;5.83;100.00
829;BME280;396;52.558;13.188;2023-12-20T08:24:33;100298.28;;;5.83;100.00
829;BME280;396;52.558;13.188;2023-12-20T08:26:59;100297.19;;;5.84;100.00
829;BME280;396;52.558;13.188;2023-12-20T08:29:26;100291.81;;;5.84;100.00
829;BME280;396;52.558;13.188;2023-12-20T08:31:53;100295.34;;;5.85;100.00
829;BME280;396;52.558;13.188;2023-12-20T08:34:20;100289.63;;;5.91;100.00
829;BME280;396;52.558;13.188;2023-12-20T08:36:46;100288.03;;;5.95;100.00
829;BME280;396;52.558;13.188;2023-12-20T08:39:14;100277.00;;;5.97;100.00
829;BME280;396;52.558;13.188;2023-12-20T08:41:41;100274.84;;;5.99;100.00
829;BME280;396;52.558;13.188;2023-12-20T08:44:08;100271.84;;;6.05;100.00
829;BME280;396;52.558;13.188;2023-12-20T08:46:35;100267.25;;;6.11;100.00
829;BME280;396;52.558;13.188;2023-12-20T08:49:02;100271.84;;;6.05;100.00
829;BME280;396;52.558;13.188;2023-12-20T08:51:29;100267.03;;;6.02;100.00
829;BME280;396;52.558;13.188;2023-12-20T08:53:55;100265.66;;;6.05;100.00
829;BME280;396;52.558;13.188;2023-12-20T08:56:23;100262.94;;;6.10;100.00
829;BME280;396;52.558;13.188;2023-12-20T08:58:50;100265.06;;;6.13;100.00
829;BME280;396;52.558;13.188;2023-12-20T09:01:16;100269.06;;;6.21;100.00
829;BME280;396;52.558;13.188;2023-12-20T09:03:43;100266.09;;;6.22;100.00
829;BME280;396;52.558;13.188;2023-12-20T09:06:10;100277.06;;;6.31;100.00
829;BME280;396;52.558;13.188;2023-12-20T09:08:36;100272.97;;;6.39;100.00
829;BME280;396;52.558;13.188;2023-12-20T09:11:03;100258.97;;;6.37;100.00
829;BME280;396;52.558;13.188;2023-12-20T09:13:31;100261.41;;;6.38;100.00
829;BME280;396;52.558;13.188;2023-12-20T09:15:58;100265.69;;;6.39;100.00
829;BME280;396;52.558;13.188;2023-12-20T09:18:24;100267.00;;;6.42;100.00
829;BME280;396;52.558;13.188;2023-12-20T09:20:51;100271.03;;;6.44;100.00
829;BME280;396;52.558;13.188;2023-12-20T09:23:18;100268.09;;;6.41;100.00
829;BME280;396;52.558;13.188;2023-12-20T09:25:44;100267.34;;;6.35;100.00
829;BME280;396;52.558;13.188;2023-12-20T09:28:11;100268.69;;;6.32;100.00
829;BME280;396;52.558;13.188;2023-12-20T09:30:39;100262.75;;;6.36;100.00
829;BME280;396;52.558;13.188;2023-12-20T09:33:06;100257.38;;;6.36;100.00
829;BME280;396;52.558;13.188;2023-12-20T09:35:33;100262.22;;;6.39;100.00
829;BME280;396;52.558;13.188;2023-12-20T09:37:59;100254.69;;;6.36;100.00
829;BME280;396;52.558;13.188;2023-12-20T09:40:26;100243.63;;;6.37;100.00
829;BME280;396;52.558;13.188;2023-12-20T09:42:56;100256.59;;;6.35;100.00
829;BME280;396;52.558;13.188;2023-12-20T09:45:24;100255.78;;;6.35;100.00
829;BME280;396;52.558;13.188;2023-12-20T09:47:53;100245.03;;;6.35;100.00
829;BME280;396;52.558;13.188;2023-12-20T09:50:20;100247.72;;;6.35;100.00
829;BME280;396;52.558;13.188;2023-12-20T09:52:49;100243.63;;;6.37;100.00
829;BME280;396;52.558;13.188;2023-12-20T09:55:17;100248.75;;;6.39;100.00
829;BME280;396;52.558;13.188;2023-12-20T09:57:44;100247.34;;;6.46;100.00
829;BME280;396;52.558;13.188;2023-12-20T10:00:12;100240.59;;;6.49;100.00
829;BME280;396;52.558;13.188;2023-12-20T10:02:45;100237.41;;;6.47;100.00
829;BME280;396;52.558;13.188;2023-12-20T10:05:16;100239.56;;;6.45;100.00
829;BME280;396;52.558;13.188;2023-12-20T10:07:44;100231.47;;;6.45;100.00
829;BME280;396;52.558;13.188;2023-12-20T10:10:12;100218.50;;;6.52;100.00
829;BME280;396;52.558;13.188;2023-12-20T10:12:39;100213.41;;;6.50;100.00
829;BME280;396;52.558;13.188;2023-12-20T10:15:06;100209.66;;;6.51;100.00
829;BME280;396;52.558;13.188;2023-12-20T10:17:33;100213.59;;;6.59;100.00
829;BME280;396;52.558;13.188;2023-12-20T10:19:59;100216.25;;;6.64;100.00
829;BME280;396;52.558;13.188;2023-12-20T10:22:28;100202.56;;;6.61;100.00
829;BME280;396;52.558;13.188;2023-12-20T10:24:56;100208.75;;;6.61;100.00
829;BME280;396;52.558;13.188;2023-12-20T10:27:22;100206.56;;;6.63;100.00
829;BME280;396;52.558;13.188;2023-12-20T10:29:49;100205.75;;;6.63;100.00
829;BME280;396;52.558;13.188;2023-12-20T10:32:23;100191.81;;;6.61;100.00
829;BME280;396;52.558;13.188;2023-12-20T10:34:50;100184.19;;;6.68;100.00
829;BME280;396;52.558;13.188;2023-12-20T10:37:17;100185.81;;;6.69;100.00
829;BME280;396;52.558;13.188;2023-12-20T10:39:49;100182.88;;;6.65;100.00
829;BME280;396;52.558;13.188;2023-12-20T10:42:16;100173.19;;;6.64;100.00
829;BME280;396;52.558;13.188;2023-12-20T10:44:43;100172.09;;;6.65;100.00
829;BME280;396;52.558;13.188;2023-12-20T10:47:12;100165.13;;;6.64;100.00
829;BME280;396;52.558;13.188;2023-12-20T10:49:40;100155.91;;;6.70;100.00
829;BME280;396;52.558;13.188;2023-12-20T10:52:08;100155.59;;;6.72;100.00
829;BME280;396;52.558;13.188;2023-12-20T10:54:35;100151.56;;;6.74;100.00
829;BME280;396;52.558;13.188;2023-12-20T10:57:05;100143.41;;;6.79;100.00
829;BME280;396;52.558;13.188;2023-12-20T10:59:33;100140.66;;;6.85;100.00
829;BME280;396;52.558;13.188;2023-12-20T11:02:03;100133.69;;;6.83;100.00
829;BME280;396;52.558;13.188;2023-12-20T11:04:36;100130.69;;;6.85;100.00
829;BME280;396;52.558;13.188;2023-12-20T11:07:12;100122.91;;;6.83;100.00
829;BME280;396;52.558;13.188;2023-12-20T11:09:46;100118.09;;;6.80;100.00
829;BME280;396;52.558;13.188;2023-12-20T11:12:20;100118.91;;;6.81;100.00
829;BME280;396;52.558;13.188;2023-12-20T11:14:53;100110.09;;;6.75;100.00
829;BME280;396;52.558;13.188;2023-12-20T11:17:21;100108.44;;;6.79;100.00
829;BME280;396;52.558;13.188;2023-12-20T11:20:08;100113.00;;;6.79;100.00
829;BME280;396;52.558;13.188;2023-12-20T11:22:37;100099.84;;;6.77;100.00
829;BME280;396;52.558;13.188;2023-12-20T11:25:08;100093.94;;;6.75;100.00
829;BME280;396;52.558;13.188;2023-12-20T11:27:39;100099.09;;;6.72;100.00
829;BME280;396;52.558;13.188;2023-12-20T11:30:07;100091.00;;;6.72;100.00
829;BME280;396;52.558;13.188;2023-12-20T11:32:36;100079.53;;;6.66;100.00
829;BME280;396;52.558;13.188;2023-12-20T11:35:17;100070.72;;;6.61;100.00
829;BME280;396;52.558;13.188;2023-12-20T11:37:45;100070.34;;;6.67;100.00
829;BME280;396;52.558;13.188;2023-12-20T11:40:14;100070.00;;;6.74;100.00
829;BME280;396;52.558;13.188;2023-12-20T11:42:44;100058.66;;;6.77;100.00
829;BME280;396;52.558;13.188;2023-12-20T11:45:13;100054.66;;;6.74;100.00
829;BME280;396;52.558;13.188;2023-12-20T11:47:42;100042.31;;;6.73;100.00
829;BME280;396;52.558;13.188;2023-12-20T11:50:09;100038.50;;;6.74;100.00
829;BME280;396;52.558;13.188;2023-12-20T11:52:35;100027.53;;;6.71;100.00
829;BME280;396;52.558;13.188;2023-12-20T11:55:02;100015.66;;;6.72;100.00
829;BME280;396;52.558;13.188;2023-12-20T11:57:29;100012.16;;;6.71;100.00
829;BME280;396;52.558;13.188;2023-12-20T11:59:57;100009.41;;;6.76;100.00
829;BME280;396;52.558;13.188;2023-12-20T12:02:24;100008.84;;;6.79;100.00
829;BME280;396;52.558;13.188;2023-12-20T12:04:51;99987.53;;;6.83;100.00
829;BME280;396;52.558;13.188;2023-12-20T12:07:17;99995.84;;;6.87;100.00
829;BME280;396;52.558;13.188;2023-12-20T12:09:45;99990.44;;;6.87;100.00
829;BME280;396;52.558;13.188;2023-12-20T12:12:12;99986.94;;;6.86;100.00
829;BME280;396;52.558;13.188;2023-12-20T12:14:39;99985.25;;;6.90;100.00
829;BME280;396;52.558;13.188;2023-12-20T12:17:11;99977.47;;;6.89;100.00
829;BME280;396;52.558;13.188;2023-12-20T12:19:38;99969.47;;;6.83;100.00
829;BME280;396;52.558;13.188;2023-12-20T12:22:05;99970.34;;;6.79;100.00
829;BME280;396;52.558;13.188;2023-12-20T12:24:33;99966.94;;;6.73;100.00
829;BME280;396;52.558;13.188;2023-12-20T12:27:00;99961.13;;;6.66;100.00
829;BME280;396;52.558;13.188;2023-12-20T12:29:27;99962.28;;;6.60;100.00
829;BME280;396;52.558;13.188;2023-12-20T12:31:54;99954.25;;;6.55;100.00
829;BME280;396;52.558;13.188;2023-12-20T12:34:22;99960.50;;;6.50;100.00
829;BME280;396;52.558;13.188;2023-12-20T12:36:49;99942.03;;;6.44;100.00
829;BME280;396;52.558;13.188;2023-12-20T12:39:17;99940.69;;;6.46;100.00
829;BME280;396;52.558;13.188;2023-12-20T12:41:44;99932.44;;;6.38;100.00
829;BME280;396;52.558;13.188;2023-12-20T12:44:10;99928.13;;;6.37;100.00
829;BME280;396;52.558;13.188;2023-12-20T12:46:37;99927.63;;;6.35;100.00
829;BME280;396;52.558;13.188;2023-12-20T12:49:03;99929.22;;;6.36;100.00
829;BME280;396;52.558;13.188;2023-12-20T12:51:31;99929.22;;;6.36;100.00
829;BME280;396;52.558;13.188;2023-12-20T12:53:58;99924.94;;;6.35;100.00
829;BME280;396;52.558;13.188;2023-12-20T12:56:25;99929.69;;;6.43;100.00
829;BME280;396;52.558;13.188;2023-12-20T12:58:52;99938.03;;;6.41;100.00
829;BME280;396;52.558;13.188;2023-12-20T13:01:19;99958.19;;;6.44;100.00
829;BME280;396;52.558;13.188;2023-12-20T13:03:45;99960.56;;;6.45;100.00
829;BME280;396;52.558;13.188;2023-12-20T13:06:12;99984.34;;;6.38;100.00
829;BME280;396;52.558;13.188;2023-12-20T13:08:40;99977.31;;;6.42;100.00
829;BME280;396;52.558;13.188;2023-12-20T13:11:07;99987.84;;;6.39;100.00
829;BME280;396;52.558;13.188;2023-12-20T13:13:33;100013.72;;;6.35;100.00
829;BME280;396;52.558;13.188;2023-12-20T13:16:00;99992.88;;;6.21;100.00
829;BME280;396;52.558;13.188;2023-12-20T13:18:26;99991.91;;;6.12;100.00
829;BME280;396;52.558;13.188;2023-12-20T13:20:53;99998.94;;;6.08;100.00
829;BME280;396;52.558;13.188;2023-12-20T13:23:20;99972.06;;;6.08;100.00